Time;durP1;ratioP1;P1;durP2;ratioP2;P2;SDS_P1;SDS_P2;PMS_P1;PMS_P2;Temp;Humidity;BMP_temperature;BMP_pressure;BME280_temperature;BME280_humidity;BME280_pressure;Samples;Min_cycle;Max_cycle;Signal;HPM_P1;HPM_P2
2023/09/06 00:01:36;;;;;;;1.73;1.42;;;24.80;65.90;;;;;;5035780;28;20118;-79
2023/09/06 00:04:02;;;;;;;1.95;1.70;;;24.80;65.30;;;;;;5035559;28;20025;-79
2023/09/06 00:06:28;;;;;;;1.40;1.30;;;24.70;65.30;;;;;;5035380;28;20040;-79
2023/09/06 00:08:53;;;;;;;2.17;1.50;;;24.70;65.30;;;;;;5051906;28;20041;-78
2023/09/06 00:11:19;;;;;;;1.60;1.50;;;24.70;65.30;;;;;;5035561;28;20076;-79
2023/09/06 00:13:45;;;;;;;3.35;1.73;;;24.70;65.40;;;;;;5019776;28;20068;-79
2023/09/06 00:16:11;;;;;;;1.90;1.48;;;24.60;65.40;;;;;;5035640;28;20437;-79
2023/09/06 00:18:37;;;;;;;1.50;1.40;;;24.60;65.40;;;;;;5035269;28;20036;-79
2023/09/06 00:21:04;;;;;;;2.28;1.60;;;24.60;65.40;;;;;;5037535;28;20029;-78
2023/09/06 00:23:31;;;;;;;1.90;1.40;;;24.60;65.50;;;;;;5055621;28;20033;-78
2023/09/06 00:25:56;;;;;;;1.67;1.40;;;24.50;65.40;;;;;;5055797;28;20120;-79
2023/09/06 00:28:24;;;;;;;1.67;1.40;;;24.50;65.40;;;;;;5055815;28;20119;-79
2023/09/06 00:30:50;;;;;;;1.50;1.40;;;24.50;65.50;;;;;;5055930;28;20037;-79
2023/09/06 00:33:16;;;;;;;1.52;1.38;;;24.50;65.50;;;;;;5039041;28;20128;-79
2023/09/06 00:35:43;;;;;;;2.58;1.75;;;24.40;65.50;;;;;;5039087;28;20094;-79
2023/09/06 00:38:10;;;;;;;1.60;1.50;;;24.40;65.50;;;;;;5038974;28;20063;-79
2023/09/06 00:40:37;;;;;;;1.65;1.40;;;24.40;65.60;;;;;;5039283;28;20542;-78
2023/09/06 00:43:08;;;;;;;1.60;1.50;;;24.40;65.50;;;;;;5055487;28;20497;-79
2023/09/06 00:45:45;;;;;;;1.45;1.35;;;24.30;65.50;;;;;;5039054;28;20124;-79
2023/09/06 00:48:21;;;;;;;1.98;1.73;;;24.30;65.60;;;;;;5055704;28;20094;-79
2023/09/06 00:50:53;;;;;;;2.13;1.45;;;24.30;65.60;;;;;;5038708;28;20478;-79
2023/09/06 00:53:20;;;;;;;1.83;1.50;;;24.30;65.60;;;;;;5055362;28;20028;-78
2023/09/06 00:55:48;;;;;;;2.28;1.50;;;24.20;65.60;;;;;;5055270;28;20029;-79
2023/09/06 00:58:18;;;;;;;2.15;1.63;;;24.20;65.60;;;;;;5056436;28;20056;-79
2023/09/06 01:00:45;;;;;;;2.30;1.38;;;24.20;65.60;;;;;;5038516;28;20037;-79
2023/09/06 01:03:11;;;;;;;1.73;1.50;;;24.20;65.60;;;;;;5038566;28;20029;-79
2023/09/06 01:06:05;;;;;;;2.15;1.65;;;24.10;65.60;;;;;;5056417;28;20037;-78
2023/09/06 01:08:42;;;;;;;3.08;1.77;;;24.10;65.70;;;;;;5055538;28;20112;-79
2023/09/06 01:11:21;;;;;;;1.52;1.42;;;24.10;65.70;;;;;;5055168;28;20116;-79
2023/09/06 01:14:01;;;;;;;1.65;1.50;;;24.00;65.60;;;;;;5054962;28;20021;-78
2023/09/06 01:16:39;;;;;;;2.50;1.75;;;24.00;65.70;;;;;;5054851;28;20032;-79
2023/09/06 01:19:06;;;;;;;2.78;1.40;;;24.00;65.70;;;;;;5054925;28;20369;-78
2023/09/06 01:22:10;;;;;;;1.70;1.50;;;24.00;65.70;;;;;;5055508;28;20503;-80
2023/09/06 01:24:36;;;;;;;1.90;1.50;;;23.90;65.70;;;;;;5056200;28;20029;-79
2023/09/06 01:27:04;;;;;;;1.65;1.40;;;23.90;65.70;;;;;;5021805;28;20029;-79
2023/09/06 01:29:31;;;;;;;2.25;1.60;;;23.80;65.70;;;;;;5038370;28;20120;-79
2023/09/06 01:31:57;;;;;;;1.67;1.50;;;23.80;65.70;;;;;;5037042;28;20026;-79
2023/09/06 01:34:22;;;;;;;2.08;1.45;;;23.80;65.70;;;;;;5054535;28;20032;-77
2023/09/06 01:36:48;;;;;;;2.85;1.67;;;23.80;65.80;;;;;;5038228;28;20108;-79
2023/09/06 01:39:14;;;;;;;2.35;1.70;;;23.80;65.80;;;;;;5054238;28;20025;-79
2023/09/06 01:41:40;;;;;;;2.22;1.45;;;23.70;65.70;;;;;;5054964;28;20033;-78
2023/09/06 01:44:06;;;;;;;1.90;1.50;;;23.70;65.70;;;;;;5054064;28;20056;-79
2023/09/06 01:46:32;;;;;;;1.70;1.52;;;23.70;65.80;;;;;;5037656;28;20095;-79
2023/09/06 01:48:59;;;;;;;1.95;1.60;;;23.60;65.80;;;;;;5053985;28;20037;-79
2023/09/06 01:51:25;;;;;;;1.83;1.42;;;23.60;65.80;;;;;;5054014;28;20033;-79
2023/09/06 01:53:51;;;;;;;2.05;1.42;;;23.60;65.80;;;;;;5054850;28;20363;-79
2023/09/06 01:56:17;;;;;;;2.08;1.63;;;23.60;65.80;;;;;;5037539;28;20039;-79
2023/09/06 01:58:42;;;;;;;2.05;1.80;;;23.50;65.80;;;;;;5037675;28;20119;-79
2023/09/06 02:01:09;;;;;;;2.10;1.60;;;23.50;65.90;;;;;;5053961;28;20143;-79
2023/09/06 02:03:35;;;;;;;2.20;1.58;;;23.50;65.90;;;;;;5037538;28;20415;-79
2023/09/06 02:06:01;;;;;;;2.53;1.65;;;23.40;65.90;;;;;;5037287;28;20037;-79
2023/09/06 02:08:27;;;;;;;2.45;1.70;;;23.40;65.90;;;;;;5054055;28;20048;-79
2023/09/06 02:10:53;;;;;;;2.42;1.83;;;23.40;65.90;;;;;;5054043;28;20029;-79
2023/09/06 02:13:19;;;;;;;3.30;2.00;;;23.40;66.00;;;;;;5037426;28;20053;-79
2023/09/06 02:15:45;;;;;;;1.92;1.70;;;23.40;66.00;;;;;;5037167;28;20037;-79
2023/09/06 02:18:15;;;;;;;1.95;1.67;;;23.30;66.00;;;;;;5053887;28;20041;-79
2023/09/06 02:20:41;;;;;;;2.22;1.48;;;23.30;66.00;;;;;;5053862;28;20048;-78
2023/09/06 02:23:08;;;;;;;2.17;1.70;;;23.30;66.00;;;;;;5036998;28;20032;-79
2023/09/06 02:25:33;;;;;;;2.15;1.65;;;23.20;66.00;;;;;;5037189;28;20036;-78
2023/09/06 02:28:04;;;;;;;2.67;1.80;;;23.20;66.10;;;;;;5053256;28;20538;-79
2023/09/06 02:30:36;;;;;;;2.13;1.70;;;23.20;66.10;;;;;;5054275;28;20033;-78
2023/09/06 02:33:04;;;;;;;2.30;1.83;;;23.20;66.10;;;;;;5053884;28;20035;-79
2023/09/06 02:35:30;;;;;;;2.10;1.50;;;23.20;66.10;;;;;;5053183;28;20040;-79
2023/09/06 02:37:56;;;;;;;1.90;1.70;;;23.10;66.10;;;;;;5053084;28;20079;-79
2023/09/06 02:40:21;;;;;;;1.67;1.50;;;23.10;66.20;;;;;;5020135;28;20542;-79
2023/09/06 02:42:48;;;;;;;2.67;1.80;;;23.00;66.10;;;;;;5053051;28;20025;-79
2023/09/06 02:45:15;;;;;;;1.80;1.58;;;23.10;66.20;;;;;;5037285;28;20390;-80
2023/09/06 02:47:48;;;;;;;1.90;1.50;;;23.00;66.20;;;;;;5042272;28;20055;-79
2023/09/06 02:50:23;;;;;;;1.95;1.50;;;23.00;66.20;;;;;;5039745;28;20021;-79
2023/09/06 02:52:52;;;;;;;2.42;1.65;;;23.00;66.20;;;;;;5040064;28;20028;-79
2023/09/06 02:55:19;;;;;;;2.00;1.60;;;22.90;66.20;;;;;;5038921;28;20079;-80
2023/09/06 02:57:44;;;;;;;2.20;1.80;;;22.90;66.20;;;;;;5038117;28;20033;-79
2023/09/06 03:00:29;;;;;;;1.77;1.65;;;22.90;66.30;;;;;;5036577;28;20488;-79
2023/09/06 03:03:05;;;;;;;1.40;1.30;;;22.90;66.40;;;;;;5054596;28;20021;-79
2023/09/06 03:05:43;;;;;;;1.77;1.45;;;22.80;66.30;;;;;;5053078;28;20583;-79
2023/09/06 03:08:15;;;;;;;1.50;1.40;;;22.80;66.40;;;;;;5053121;28;20128;-80
2023/09/06 03:10:42;;;;;;;1.55;1.45;;;22.70;66.30;;;;;;5052848;28;20032;-79
2023/09/06 03:13:09;;;;;;;1.55;1.45;;;22.70;66.50;;;;;;5052437;28;20486;-82
2023/09/06 03:15:36;;;;;;;2.25;1.85;;;22.70;66.40;;;;;;5036495;28;20110;-79
2023/09/06 03:18:04;;;;;;;2.22;1.50;;;22.70;66.50;;;;;;5020135;28;20085;-79
2023/09/06 03:20:32;;;;;;;2.38;1.60;;;22.60;66.50;;;;;;5036888;28;20517;-79
2023/09/06 03:23:02;;;;;;;2.20;1.60;;;22.60;66.50;;;;;;5019794;28;20079;-81
2023/09/06 03:25:29;;;;;;;2.22;1.60;;;22.60;66.60;;;;;;5052804;28;20044;-81
2023/09/06 03:28:01;;;;;;;1.88;1.60;;;22.60;66.50;;;;;;5020434;28;20025;-81
2023/09/06 03:30:30;;;;;;;1.88;1.58;;;22.50;66.50;;;;;;5036610;28;20056;-81
2023/09/06 03:32:58;;;;;;;1.95;1.70;;;22.50;66.60;;;;;;5035515;28;20060;-81
2023/09/06 03:35:24;;;;;;;2.38;1.55;;;22.50;66.60;;;;;;5035826;28;20044;-81
2023/09/06 03:37:50;;;;;;;1.70;1.55;;;22.40;66.60;;;;;;5035810;28;20029;-81
2023/09/06 03:40:36;;;;;;;2.17;1.52;;;22.40;66.60;;;;;;5035849;28;20047;-81
2023/09/06 03:43:06;;;;;;;2.10;1.67;;;22.40;66.70;;;;;;5052301;28;20044;-81
2023/09/06 03:45:34;;;;;;;1.70;1.60;;;22.40;66.70;;;;;;5052578;28;20110;-81
2023/09/06 03:48:00;;;;;;;1.73;1.58;;;22.40;66.70;;;;;;5052255;28;20051;-81
2023/09/06 03:50:27;;;;;;;2.95;1.90;;;22.40;66.70;;;;;;5053516;28;20094;-81
2023/09/06 03:52:53;;;;;;;2.30;1.70;;;22.30;66.70;;;;;;5019073;28;20082;-81
2023/09/06 03:55:20;;;;;;;2.15;1.63;;;22.30;66.70;;;;;;5053466;28;20036;-81
2023/09/06 03:57:46;;;;;;;2.17;1.80;;;22.30;66.70;;;;;;5023366;28;20499;-81
2023/09/06 04:00:27;;;;;;;2.20;1.70;;;22.30;66.80;;;;;;5056293;28;20037;-81
2023/09/06 04:03:04;;;;;;;2.22;1.50;;;22.20;66.70;;;;;;5043305;28;20036;-81
2023/09/06 04:05:32;;;;;;;1.92;1.58;;;22.20;66.70;;;;;;5056276;28;20108;-81
2023/09/06 04:08:03;;;;;;;1.85;1.65;;;22.20;66.80;;;;;;5039678;28;20128;-81
2023/09/06 04:10:37;;;;;;;1.95;1.75;;;22.20;66.80;;;;;;5039420;28;20024;-81
2023/09/06 04:13:05;;;;;;;2.05;1.60;;;22.10;66.80;;;;;;5056475;28;20433;-81
2023/09/06 04:15:36;;;;;;;2.20;1.70;;;22.10;66.80;;;;;;5039923;28;20041;-81
2023/09/06 04:18:09;;;;;;;2.50;1.80;;;22.10;66.80;;;;;;5023269;28;20032;-81
2023/09/06 04:20:39;;;;;;;2.22;1.67;;;22.10;66.90;;;;;;5055692;28;20079;-81
2023/09/06 04:23:08;;;;;;;2.00;1.73;;;22.10;66.90;;;;;;5039795;28;20039;-81
2023/09/06 04:25:44;;;;;;;2.47;1.80;;;22.10;67.60;;;;;;5040421;28;20044;-81
2023/09/06 04:28:15;;;;;;;2.15;1.65;;;22.00;66.90;;;;;;5039877;28;20032;-81
2023/09/06 04:30:43;;;;;;;1.55;1.42;;;22.00;66.90;;;;;;5055789;28;20028;-81
2023/09/06 04:33:14;;;;;;;1.63;1.50;;;22.00;67.00;;;;;;5055877;28;20025;-81
2023/09/06 04:35:47;;;;;;;2.43;1.70;;;22.00;67.00;;;;;;5025258;28;20120;-81
2023/09/06 04:38:16;;;;;;;3.17;1.63;;;21.90;67.60;;;;;;5039414;28;20029;-81
2023/09/06 04:40:43;;;;;;;2.72;1.70;;;21.90;67.00;;;;;;5039049;28;20025;-81
2023/09/06 04:43:13;;;;;;;1.88;1.60;;;21.90;67.00;;;;;;5055976;28;20049;-81
2023/09/06 04:45:39;;;;;;;1.83;1.65;;;21.90;67.10;;;;;;5055725;28;20037;-81
2023/09/06 04:48:09;;;;;;;1.50;1.40;;;21.90;67.10;;;;;;5038962;28;20067;-81
2023/09/06 04:50:40;;;;;;;2.00;1.42;;;21.80;67.10;;;;;;5056950;28;20098;-81
2023/09/06 04:53:08;;;;;;;2.70;1.70;;;21.80;67.10;;;;;;5022906;28;20039;-81
2023/09/06 04:55:35;;;;;;;2.10;1.70;;;21.70;67.00;;;;;;5038991;28;20033;-81
2023/09/06 04:58:05;;;;;;;2.65;1.88;;;21.70;67.10;;;;;;5056098;28;20033;-81
2023/09/06 05:00:35;;;;;;;2.40;1.67;;;21.80;67.20;;;;;;5038513;28;20036;-81
2023/09/06 05:03:05;;;;;;;2.28;1.73;;;21.70;67.10;;;;;;5055213;28;20021;-81
2023/09/06 05:05:31;;;;;;;1.67;1.50;;;21.70;67.10;;;;;;5055982;28;20025;-80
2023/09/06 05:07:58;;;;;;;2.65;1.98;;;21.70;67.20;;;;;;5039581;28;20029;-81
2023/09/06 05:10:25;;;;;;;3.17;1.92;;;21.60;67.20;;;;;;5039864;28;20033;-80
2023/09/06 05:12:51;;;;;;;2.47;1.70;;;21.60;67.20;;;;;;5022267;28;20056;-81
2023/09/06 05:15:16;;;;;;;1.67;1.58;;;21.60;67.30;;;;;;5038667;28;20076;-81
2023/09/06 05:17:44;;;;;;;2.35;1.80;;;21.60;67.30;;;;;;5022832;28;20029;-80
2023/09/06 05:20:42;;;;;;;3.20;1.75;;;21.60;67.40;;;;;;5055275;28;20474;-81
2023/09/06 05:23:15;;;;;;;2.10;1.70;;;21.50;67.40;;;;;;5019026;28;20033;-80
2023/09/06 05:25:42;;;;;;;2.05;1.65;;;21.50;67.30;;;;;;5038366;28;20049;-80
2023/09/06 05:28:15;;;;;;;1.60;1.50;;;21.50;67.40;;;;;;5039138;28;20079;-81
2023/09/06 05:30:45;;;;;;;2.63;1.70;;;21.40;67.50;;;;;;5038943;28;20063;-81
2023/09/06 05:33:14;;;;;;;2.65;2.00;;;21.40;67.50;;;;;;5039243;28;20060;-81
2023/09/06 05:35:42;;;;;;;2.22;1.75;;;21.40;67.50;;;;;;5070273;28;20496;-81
2023/09/06 05:38:10;;;;;;;2.35;1.80;;;21.40;67.60;;;;;;5038406;28;20029;-80
2023/09/06 05:40:41;;;;;;;1.95;1.65;;;21.40;67.60;;;;;;5054910;28;20036;-82
2023/09/06 05:43:09;;;;;;;2.95;1.80;;;21.40;67.60;;;;;;5037841;28;20116;-80
2023/09/06 05:45:36;;;;;;;3.33;1.88;;;21.30;67.60;;;;;;5038861;28;20044;-81
2023/09/06 05:48:03;;;;;;;2.08;1.73;;;21.30;67.60;;;;;;5038950;28;20037;-81
2023/09/06 05:50:29;;;;;;;2.75;1.80;;;21.30;67.70;;;;;;5037523;28;20025;-81
2023/09/06 05:52:56;;;;;;;2.35;2.00;;;21.30;67.80;;;;;;5054457;28;20044;-81
2023/09/06 05:55:22;;;;;;;2.63;1.80;;;21.20;67.70;;;;;;5021231;28;20072;-81
2023/09/06 05:57:50;;;;;;;1.90;1.63;;;21.20;67.80;;;;;;5054335;28;20067;-81
2023/09/06 06:00:17;;;;;;;2.97;2.15;;;21.20;67.80;;;;;;5037839;28;20029;-81
2023/09/06 06:02:49;;;;;;;2.78;1.88;;;21.20;67.80;;;;;;5038523;28;20076;-80
2023/09/06 06:05:18;;;;;;;2.30;1.77;;;21.20;67.90;;;;;;5021177;28;20041;-80
2023/09/06 06:07:44;;;;;;;2.00;1.75;;;21.20;67.90;;;;;;5037299;28;20032;-81
2023/09/06 06:10:13;;;;;;;1.88;1.60;;;21.20;67.90;;;;;;5055156;28;20131;-80
2023/09/06 06:12:39;;;;;;;2.42;1.83;;;21.20;67.90;;;;;;5055163;28;20159;-81
2023/09/06 06:15:08;;;;;;;2.92;2.10;;;21.20;68.00;;;;;;5037297;28;20037;-81
2023/09/06 06:17:37;;;;;;;1.58;1.48;;;21.10;67.90;;;;;;5037126;28;20044;-81
2023/09/06 06:20:06;;;;;;;2.40;1.75;;;21.10;68.00;;;;;;5054243;28;20067;-81
2023/09/06 06:22:39;;;;;;;2.45;1.90;;;21.10;67.90;;;;;;5044186;28;20029;-83
2023/09/06 06:25:10;;;;;;;3.40;2.20;;;21.20;68.00;;;;;;5073456;28;20032;-82
2023/09/06 06:27:37;;;;;;;2.95;1.95;;;21.10;68.00;;;;;;5056284;28;20156;-81
2023/09/06 06:30:05;;;;;;;2.63;2.00;;;21.10;68.00;;;;;;5024930;28;20127;-82
2023/09/06 06:32:32;;;;;;;2.05;1.77;;;21.10;68.00;;;;;;5039357;28;20029;-82
2023/09/06 06:35:01;;;;;;;4.95;2.03;;;21.10;68.00;;;;;;5055109;28;20033;-81
2023/09/06 06:37:27;;;;;;;2.17;1.75;;;21.10;68.10;;;;;;5037474;28;20036;-82
2023/09/06 06:39:54;;;;;;;1.92;1.70;;;21.10;68.10;;;;;;5053482;28;20025;-82
2023/09/06 06:42:20;;;;;;;1.80;1.52;;;21.10;68.10;;;;;;5053663;28;20063;-82
2023/09/06 06:44:53;;;;;;;2.53;1.63;;;21.10;68.10;;;;;;5053153;28;20099;-82
2023/09/06 06:47:19;;;;;;;2.03;1.67;;;21.10;68.20;;;;;;5036937;28;20033;-82
2023/09/06 06:49:45;;;;;;;2.72;1.70;;;21.10;68.20;;;;;;5036730;28;20033;-82
2023/09/06 06:52:11;;;;;;;1.98;1.77;;;21.10;68.20;;;;;;5053290;28;20043;-81
2023/09/06 06:54:40;;;;;;;1.98;1.60;;;21.10;68.20;;;;;;5036673;28;20037;-82
2023/09/06 06:57:07;;;;;;;2.47;1.90;;;21.10;68.20;;;;;;5053243;28;20120;-81
2023/09/06 06:59:34;;;;;;;2.25;2.00;;;21.10;68.20;;;;;;5036422;28;20033;-82
2023/09/06 07:01:59;;;;;;;1.98;1.67;;;21.10;68.20;;;;;;5052897;28;20029;-82
2023/09/06 07:04:25;;;;;;;1.90;1.63;;;21.10;68.20;;;;;;5052771;28;20440;-82
2023/09/06 07:06:51;;;;;;;2.42;1.83;;;21.10;68.20;;;;;;5036295;28;20033;-82
2023/09/06 07:09:17;;;;;;;1.90;1.70;;;21.10;68.20;;;;;;5036125;28;20428;-82
2023/09/06 07:11:43;;;;;;;2.33;1.85;;;21.10;68.20;;;;;;5036350;28;20580;-82
2023/09/06 07:14:08;;;;;;;2.00;1.80;;;21.10;68.30;;;;;;5054302;28;20116;-82
2023/09/06 07:16:34;;;;;;;2.67;1.98;;;21.10;68.30;;;;;;5052658;28;20423;-82
2023/09/06 07:19:00;;;;;;;2.53;1.70;;;21.10;68.30;;;;;;5036149;28;20037;-82
2023/09/06 07:21:27;;;;;;;1.90;1.67;;;21.20;68.30;;;;;;5054199;28;20389;-81
2023/09/06 07:23:55;;;;;;;2.20;1.65;;;21.20;69.00;;;;;;5052425;28;20129;-82
2023/09/06 07:26:21;;;;;;;3.03;2.00;;;21.20;68.40;;;;;;5019225;28;20064;-82
2023/09/06 07:28:47;;;;;;;2.85;1.88;;;21.20;68.40;;;;;;5036264;28;20397;-82
2023/09/06 07:31:14;;;;;;;2.13;1.80;;;21.20;68.50;;;;;;5035396;28;20054;-80
2023/09/06 07:33:40;;;;;;;2.25;1.60;;;21.20;68.50;;;;;;5035603;28;20032;-80
2023/09/06 07:36:07;;;;;;;2.33;1.63;;;21.20;68.50;;;;;;5035775;28;20041;-81
2023/09/06 07:38:33;;;;;;;2.55;1.90;;;21.20;68.50;;;;;;5035808;28;20103;-81
2023/09/06 07:41:08;;;;;;;2.13;1.80;;;21.20;68.50;;;;;;5020153;28;20068;-81
2023/09/06 07:43:37;;;;;;;2.35;1.85;;;21.30;68.90;;;;;;5053201;28;20041;-82
2023/09/06 07:46:06;;;;;;;2.50;1.80;;;21.30;68.60;;;;;;5019040;28;20055;-81
2023/09/06 07:48:32;;;;;;;1.67;1.58;;;21.30;68.70;;;;;;5035698;28;20037;-81
2023/09/06 07:50:59;;;;;;;2.28;1.73;;;21.30;68.60;;;;;;5019276;28;20033;-82
2023/09/06 07:53:26;;;;;;;2.45;1.92;;;21.30;68.70;;;;;;5052387;28;20083;-81
2023/09/06 07:55:52;;;;;;;3.10;1.67;;;21.30;68.70;;;;;;5036081;28;20040;-81
2023/09/06 07:58:19;;;;;;;1.77;1.60;;;21.40;68.80;;;;;;5036447;28;20033;-81
2023/09/06 08:00:48;;;;;;;2.55;1.73;;;21.30;68.70;;;;;;5019515;28;20029;-82
2023/09/06 08:03:14;;;;;;;2.22;1.85;;;21.40;68.80;;;;;;5053543;28;20068;-81
2023/09/06 08:05:40;;;;;;;2.10;1.65;;;21.40;68.80;;;;;;5035775;28;20469;-81
2023/09/06 08:08:11;;;;;;;2.00;1.65;;;21.40;68.90;;;;;;5036308;28;20049;-82
2023/09/06 08:10:37;;;;;;;2.05;1.73;;;21.40;68.90;;;;;;5036109;28;20371;-82
2023/09/06 08:13:04;;;;;;;2.05;1.73;;;21.50;69.00;;;;;;5035534;28;20470;-82
2023/09/06 08:15:31;;;;;;;2.40;1.95;;;21.50;69.00;;;;;;5053319;28;20036;-82
2023/09/06 08:17:57;;;;;;;3.53;2.10;;;21.50;69.00;;;;;;5052261;28;20029;-82
2023/09/06 08:20:24;;;;;;;3.22;1.88;;;21.50;69.00;;;;;;5052352;28;20029;-82
2023/09/06 08:22:49;;;;;;;2.60;1.83;;;21.50;69.00;;;;;;5052769;28;20040;-82
2023/09/06 08:25:17;;;;;;;3.22;2.38;;;21.50;69.00;;;;;;5058111;28;20025;-82
2023/09/06 08:27:43;;;;;;;3.20;1.92;;;21.60;69.10;;;;;;5044121;28;20465;-82
2023/09/06 08:30:11;;;;;;;2.00;1.67;;;21.60;69.00;;;;;;5035946;28;20048;-82
2023/09/06 08:32:38;;;;;;;2.50;1.70;;;21.60;69.00;;;;;;5052670;28;20037;-82
2023/09/06 08:35:06;;;;;;;2.53;1.90;;;21.70;69.00;;;;;;5052616;28;20033;-81
2023/09/06 08:37:33;;;;;;;2.00;1.75;;;21.70;68.90;;;;;;5037037;28;20037;-81
2023/09/06 08:39:58;;;;;;;2.25;1.80;;;21.80;68.90;;;;;;5052879;28;20037;-81
2023/09/06 08:42:33;;;;;;;2.40;1.90;;;21.80;68.80;;;;;;5038463;28;20090;-81
2023/09/06 08:45:01;;;;;;;2.03;1.80;;;21.90;68.80;;;;;;5055970;28;20501;-82
2023/09/06 08:47:27;;;;;;;2.75;1.90;;;21.90;68.60;;;;;;5039018;28;20076;-82
2023/09/06 08:49:54;;;;;;;2.65;1.90;;;22.00;68.50;;;;;;5055344;28;20078;-82
2023/09/06 08:52:20;;;;;;;3.25;1.80;;;22.10;68.50;;;;;;5038419;28;20036;-82
2023/09/06 08:54:50;;;;;;;3.35;1.98;;;22.10;68.40;;;;;;5055583;28;20039;-82
2023/09/06 08:57:17;;;;;;;2.53;1.80;;;22.20;68.30;;;;;;5038808;28;20035;-82
2023/09/06 08:59:44;;;;;;;1.70;1.52;;;22.30;68.20;;;;;;5057424;28;20029;-82
2023/09/06 09:02:12;;;;;;;2.95;2.17;;;22.30;68.20;;;;;;5055685;28;20032;-82
2023/09/06 09:04:42;;;;;;;2.85;2.10;;;22.40;68.10;;;;;;5055539;28;20068;-82
2023/09/06 09:07:16;;;;;;;3.17;2.10;;;22.50;68.10;;;;;;5038694;28;20032;-82
2023/09/06 09:10:04;;;;;;;2.65;2.00;;;22.60;68.10;;;;;;5039213;28;20033;-82
2023/09/06 09:12:30;;;;;;;3.03;2.03;;;22.70;68.00;;;;;;5040141;28;20025;-82
2023/09/06 09:14:58;;;;;;;2.70;1.80;;;22.80;67.80;;;;;;5057828;28;20032;-82
2023/09/06 09:17:25;;;;;;;3.17;2.20;;;22.90;67.80;;;;;;5040942;28;20029;-82
2023/09/06 09:19:54;;;;;;;2.55;1.85;;;22.90;67.70;;;;;;5039811;28;20033;-82
2023/09/06 09:22:24;;;;;;;2.28;1.90;;;23.00;67.70;;;;;;5055128;28;20086;-83
2023/09/06 09:24:55;;;;;;;2.38;1.70;;;23.20;67.80;;;;;;5038184;28;20033;-83
2023/09/06 09:27:23;;;;;;;2.13;1.75;;;23.30;67.70;;;;;;5039831;28;20040;-82
2023/09/06 09:29:49;;;;;;;1.70;1.45;;;23.30;67.60;;;;;;5038526;28;20025;-82
2023/09/06 09:32:15;;;;;;;4.03;2.00;;;23.40;67.50;;;;;;5055949;28;20043;-82
2023/09/06 09:34:41;;;;;;;2.80;2.17;;;23.60;67.50;;;;;;5054355;28;20025;-81
2023/09/06 09:37:11;;;;;;;2.42;1.85;;;23.60;67.40;;;;;;5038402;28;20029;-82
2023/09/06 09:39:37;;;;;;;2.33;1.83;;;23.70;67.40;;;;;;5054799;28;20029;-82
2023/09/06 09:42:05;;;;;;;3.53;2.25;;;23.80;67.30;;;;;;5054603;28;20029;-82
2023/09/06 09:44:31;;;;;;;2.60;1.88;;;24.00;67.40;;;;;;5037447;28;20503;-82
2023/09/06 09:47:12;;;;;;;3.58;2.00;;;24.00;67.30;;;;;;5038512;28;20056;-82
2023/09/06 09:49:40;;;;;;;3.63;2.05;;;24.20;67.40;;;;;;5056371;28;20045;-82
2023/09/06 09:52:12;;;;;;;2.75;1.90;;;24.30;67.30;;;;;;5037920;28;20032;-82
2023/09/06 09:54:45;;;;;;;3.45;2.00;;;24.40;67.20;;;;;;5037024;28;20025;-83
2023/09/06 09:57:12;;;;;;;2.72;2.00;;;24.50;67.20;;;;;;5054753;28;20032;-82
2023/09/06 09:59:39;;;;;;;2.67;1.92;;;24.60;67.00;;;;;;5055492;28;20025;-82
2023/09/06 10:02:07;;;;;;;2.30;1.63;;;24.70;67.00;;;;;;5054055;28;20031;-81
2023/09/06 10:04:38;;;;;;;2.25;1.70;;;24.80;67.10;;;;;;5037705;28;20470;-82
2023/09/06 10:07:08;;;;;;;1.70;1.47;;;24.90;67.10;;;;;;5041717;28;20043;-82
2023/09/06 10:09:38;;;;;;;2.70;1.85;;;25.00;66.90;;;;;;5053990;28;20439;-82
2023/09/06 10:12:07;;;;;;;2.22;1.80;;;25.10;67.00;;;;;;5021371;28;20048;-82
2023/09/06 10:14:33;;;;;;;2.10;1.67;;;25.20;67.10;;;;;;5055275;28;20025;-83
2023/09/06 10:17:01;;;;;;;2.38;1.85;;;25.40;67.20;;;;;;5054124;28;20115;-82
2023/09/06 10:19:27;;;;;;;2.45;1.83;;;25.40;67.20;;;;;;5053929;28;20473;-81
2023/09/06 10:21:54;;;;;;;1.83;1.65;;;25.50;67.20;;;;;;5037418;28;20021;-82
2023/09/06 10:24:22;;;;;;;1.55;1.40;;;25.60;67.20;;;;;;5037232;28;20028;-82
2023/09/06 10:26:49;;;;;;;3.13;1.80;;;25.80;67.40;;;;;;5053592;28;20033;-81
2023/09/06 10:29:22;;;;;;;1.92;1.60;;;25.80;67.30;;;;;;5037522;28;20363;-82
2023/09/06 10:31:52;;;;;;;2.28;1.80;;;25.90;67.40;;;;;;5055687;28;20109;-82
2023/09/06 10:34:21;;;;;;;1.92;1.60;;;26.10;67.40;;;;;;5039760;28;20024;-83
2023/09/06 10:36:56;;;;;;;1.85;1.65;;;26.20;67.50;;;;;;5071219;28;20059;-83
2023/09/06 10:39:25;;;;;;;2.33;1.88;;;26.30;67.50;;;;;;5054818;28;20104;-83
2023/09/06 10:42:16;;;;;;;2.20;1.70;;;26.30;67.50;;;;;;5064012;28;20040;-82
2023/09/06 10:44:54;;;;;;;1.98;1.55;;;26.50;67.60;;;;;;5052064;28;20073;-82
2023/09/06 10:47:27;;;;;;;1.85;1.65;;;26.60;67.60;;;;;;5039446;28;20489;-81
2023/09/06 10:50:16;;;;;;;2.17;1.65;;;26.70;67.60;;;;;;5039370;28;20064;-82
2023/09/06 10:52:43;;;;;;;2.38;1.60;;;26.80;67.60;;;;;;5059312;28;20529;-82
2023/09/06 10:55:24;;;;;;;1.95;1.60;;;26.80;67.50;;;;;;5037643;28;20100;-83
2023/09/06 10:57:55;;;;;;;2.67;1.70;;;26.90;67.90;;;;;;5053406;28;20032;-83
2023/09/06 11:00:26;;;;;;;2.33;1.70;;;26.90;68.00;;;;;;5036536;28;20029;-82
2023/09/06 11:03:07;;;;;;;1.85;1.58;;;27.00;68.20;;;;;;5053546;28;20033;-82
2023/09/06 11:05:39;;;;;;;2.08;1.60;;;27.00;68.30;;;;;;5036632;28;20056;-82
2023/09/06 11:08:08;;;;;;;2.30;1.90;;;27.10;68.40;;;;;;5053357;28;20033;-82
2023/09/06 11:10:35;;;;;;;2.60;1.80;;;27.20;68.60;;;;;;5052929;28;20036;-82
2023/09/06 11:13:12;;;;;;;1.60;1.40;;;27.20;68.70;;;;;;5036307;28;20033;-83
2023/09/06 11:15:41;;;;;;;1.90;1.70;;;27.30;68.90;;;;;;5036376;28;20420;-81
2023/09/06 11:18:09;;;;;;;2.53;1.70;;;27.30;68.90;;;;;;5052440;28;20071;-83
2023/09/06 11:20:35;;;;;;;2.33;1.80;;;27.30;68.90;;;;;;5036415;28;20029;-83
2023/09/06 11:23:03;;;;;;;2.67;2.10;;;27.40;69.00;;;;;;5036114;28;20057;-82
2023/09/06 11:25:31;;;;;;;2.92;1.92;;;27.40;68.90;;;;;;5036360;28;20090;-83
2023/09/06 11:28:16;;;;;;;2.65;1.70;;;27.40;68.90;;;;;;5037001;28;20523;-82
2023/09/06 11:30:45;;;;;;;3.45;2.05;;;27.50;69.10;;;;;;5035678;28;20072;-83
2023/09/06 11:33:11;;;;;;;2.70;2.03;;;27.50;69.10;;;;;;5053748;28;20040;-82
2023/09/06 11:35:48;;;;;;;3.13;2.00;;;27.50;69.10;;;;;;5036301;28;20040;-82
2023/09/06 11:38:17;;;;;;;2.95;1.90;;;27.60;69.10;;;;;;5052730;28;20482;-82
2023/09/06 11:40:44;;;;;;;3.92;2.00;;;27.50;69.00;;;;;;5037228;28;20036;-82
2023/09/06 11:43:13;;;;;;;2.33;1.80;;;27.60;69.10;;;;;;5052532;28;20037;-83
2023/09/06 11:45:43;;;;;;;2.83;1.90;;;27.60;69.30;;;;;;5053060;28;20051;-83
2023/09/06 11:48:09;;;;;;;2.35;1.73;;;27.70;69.40;;;;;;5020547;28;20075;-83
2023/09/06 11:50:38;;;;;;;2.65;1.80;;;27.70;69.50;;;;;;5053542;28;20128;-83
2023/09/06 11:53:09;;;;;;;2.55;1.60;;;27.70;69.60;;;;;;5052308;28;20048;-82
2023/09/06 11:55:41;;;;;;;2.95;1.88;;;27.70;69.60;;;;;;5036625;28;20036;-83
2023/09/06 11:58:16;;;;;;;2.03;1.73;;;27.70;69.60;;;;;;5036613;28;20025;-83
2023/09/06 12:00:46;;;;;;;2.38;1.83;;;27.70;69.70;;;;;;5020680;28;20116;-83
2023/09/06 12:03:16;;;;;;;1.90;1.67;;;27.80;69.60;;;;;;5036322;28;20029;-83
2023/09/06 12:06:00;;;;;;;2.30;1.90;;;27.80;69.50;;;;;;5052594;28;20036;-83
2023/09/06 12:08:29;;;;;;;2.22;1.70;;;27.80;69.30;;;;;;5037119;28;20048;-82
2023/09/06 12:11:20;;;;;;;2.40;1.88;;;27.80;69.20;;;;;;5035887;28;20037;-83
2023/09/06 12:13:46;;;;;;;2.55;1.85;;;27.80;68.90;;;;;;5052431;28;20037;-82
2023/09/06 12:16:12;;;;;;;2.90;2.00;;;27.80;68.90;;;;;;5053387;28;20441;-83
2023/09/06 12:18:38;;;;;;;2.42;1.80;;;27.80;68.60;;;;;;5039514;28;20061;-83
2023/09/06 12:21:05;;;;;;;3.67;1.90;;;27.80;68.50;;;;;;5039784;28;20039;-83
2023/09/06 12:23:32;;;;;;;2.10;1.67;;;27.90;68.50;;;;;;5055816;28;20040;-83
2023/09/06 12:26:02;;;;;;;2.20;1.70;;;27.90;68.40;;;;;;5039738;28;20041;-83
2023/09/06 12:28:29;;;;;;;3.10;1.98;;;27.90;68.30;;;;;;5026754;28;20033;-82
2023/09/06 12:31:00;;;;;;;2.35;1.63;;;27.90;68.20;;;;;;5040642;28;20060;-82
2023/09/06 12:33:29;;;;;;;3.33;2.17;;;27.90;68.10;;;;;;5023715;28;20119;-83
2023/09/06 12:36:03;;;;;;;2.88;1.90;;;27.90;68.00;;;;;;5023011;28;20033;-82
2023/09/06 12:38:32;;;;;;;1.95;1.60;;;27.90;67.80;;;;;;5057431;28;20039;-83
2023/09/06 12:41:01;;;;;;;2.55;1.80;;;27.90;67.70;;;;;;5039726;28;20017;-83
2023/09/06 12:43:29;;;;;;;2.38;1.67;;;28.00;67.70;;;;;;5039630;28;20118;-82
2023/09/06 12:45:57;;;;;;;2.80;1.90;;;28.00;67.60;;;;;;5039610;28;20056;-83
2023/09/06 12:48:23;;;;;;;2.20;1.77;;;28.00;67.50;;;;;;5057034;28;20033;-83
2023/09/06 12:50:53;;;;;;;2.92;1.83;;;28.00;67.30;;;;;;5055555;28;20036;-83
2023/09/06 12:53:26;;;;;;;2.33;1.67;;;28.00;67.20;;;;;;5056422;28;20048;-83
2023/09/06 12:55:52;;;;;;;2.28;1.80;;;28.00;67.00;;;;;;5038960;28;20045;-83
2023/09/06 12:58:21;;;;;;;2.70;1.80;;;28.00;66.90;;;;;;5038756;28;20021;-83